createdAt,value
2023-04-16T00:02:24.170Z,11.2
2023-04-16T00:04:29.611Z,11.4
2023-04-16T00:14:17.562Z,11.1
2023-04-16T00:16:15.197Z,11.6
2023-04-16T00:18:20.697Z,13
2023-04-16T00:20:18.278Z,11.5
2023-04-16T00:24:13.485Z,9.6
2023-04-16T00:26:11.059Z,13.6
2023-04-16T00:28:09.998Z,13
2023-04-16T00:30:06.284Z,13.7
2023-04-16T00:32:11.812Z,15.3
2023-04-16T00:36:06.994Z,11.7
2023-04-16T00:38:04.586Z,10.6
2023-04-16T00:43:57.409Z,12
2023-04-16T00:46:02.914Z,14.5
2023-04-16T00:49:58.100Z,15.4
2023-04-16T00:51:00.850Z,13.2
2023-04-16T01:00:56.765Z,12.7
2023-04-16T01:02:54.399Z,15.3
2023-04-16T01:06:49.507Z,11.6
2023-04-16T01:08:47.143Z,14
2023-04-16T01:10:44.743Z,14
2023-04-16T01:12:50.205Z,14.7
2023-04-16T01:14:47.801Z,13.2
2023-04-16T01:16:45.444Z,13
2023-04-16T01:20:40.626Z,16.5
2023-04-16T01:22:38.231Z,13.5
2023-04-16T01:24:35.842Z,15.5
2023-04-16T01:26:41.343Z,14.6
2023-04-16T01:28:38.943Z,16.8
2023-04-16T01:32:34.223Z,14.4
2023-04-16T01:34:31.762Z,14
2023-04-16T01:36:29.341Z,14.6
2023-04-16T01:38:26.953Z,16.3
2023-04-16T01:44:27.699Z,18.4
2023-04-16T01:45:30.448Z,17.8
2023-04-16T01:49:25.642Z,16
2023-04-16T01:51:23.260Z,16.2
2023-04-16T01:55:26.345Z,17.7
2023-04-16T01:57:23.881Z,16.6
2023-04-16T01:59:21.472Z,17.2
2023-04-16T02:03:16.801Z,17.4
2023-04-16T02:07:19.767Z,19.2
2023-04-16T02:11:14.977Z,19.2
2023-04-16T02:13:12.555Z,19
2023-04-16T02:17:07.822Z,17.1
2023-04-16T02:19:05.376Z,19.4
2023-04-16T02:21:10.911Z,17.2
2023-04-16T02:23:08.503Z,16.8
2023-04-16T02:25:06.105Z,19.7
2023-04-16T02:27:03.725Z,16.6
2023-04-16T02:29:01.344Z,18.3
2023-04-16T02:30:58.923Z,17.1
2023-04-16T02:35:02.072Z,19.1
2023-04-16T02:40:00.031Z,18.7
2023-04-16T02:41:57.636Z,16.3
2023-04-16T02:43:55.270Z,18.9
2023-04-16T02:45:52.972Z,17.8
2023-04-16T02:47:58.413Z,17.5
2023-04-16T02:49:55.983Z,16.8
2023-04-16T02:51:53.562Z,19.5
2023-04-16T02:57:46.346Z,19.2
2023-04-16T02:59:43.952Z,19.1
2023-04-16T03:01:49.706Z,22.9
2023-04-16T03:03:47.117Z,21.4
2023-04-16T03:07:42.272Z,20.3
2023-04-16T03:13:35.110Z,20.1
2023-04-16T03:17:38.316Z,21.8
2023-04-16T03:21:33.477Z,22.3
2023-04-16T03:23:31.020Z,19.5
2023-04-16T03:31:29.411Z,20.8
2023-04-16T03:33:26.988Z,21
2023-04-16T03:39:49.093Z,20.3
2023-04-16T03:45:49.835Z,20.6
2023-04-16T03:51:42.654Z,22.9
2023-04-16T03:53:40.278Z,22.8
2023-04-16T03:59:40.998Z,22.3
2023-04-16T04:01:38.663Z,21.6
2023-04-16T04:05:33.791Z,24.4
2023-04-16T04:15:30.459Z,23.7
2023-04-16T04:19:25.625Z,18.6
2023-04-16T04:21:23.233Z,23.7
2023-04-16T04:23:28.753Z,24.1
2023-04-16T04:28:26.726Z,21.5
2023-04-16T04:30:24.347Z,24.1
2023-04-16T04:32:22.005Z,21
2023-04-16T04:34:19.542Z,18.4
2023-04-16T04:36:25.039Z,23.3
2023-04-16T04:38:22.653Z,22.3
2023-04-16T04:40:20.231Z,21.8
2023-04-16T04:44:15.419Z,17.2
2023-04-16T04:46:14.605Z,21.2
2023-04-16T04:48:12.157Z,19.6
2023-04-16T04:50:17.676Z,21.1
2023-04-16T04:52:15.265Z,23.3
2023-04-16T04:54:12.883Z,26.2
2023-04-16T04:56:12.878Z,20.4
2023-04-16T04:58:08.078Z,22.5
2023-04-16T05:00:05.708Z,20.6
2023-04-16T05:02:03.386Z,21.2
2023-04-16T05:04:08.821Z,24.1
2023-04-16T05:06:06.387Z,25.7
2023-04-16T05:08:03.984Z,24.6
2023-04-16T05:13:56.782Z,21.3
2023-04-16T05:15:54.361Z,19.4
2023-04-16T05:17:59.936Z,20.6
2023-04-16T05:19:57.488Z,21.3
2023-04-16T05:21:55.079Z,24.9
2023-04-16T05:22:57.828Z,22.2
2023-04-16T05:26:53.041Z,21.4
2023-04-16T05:28:50.657Z,24.8
2023-04-16T05:30:56.209Z,22.2
2023-04-16T05:34:51.358Z,20.8
2023-04-16T05:36:48.952Z,22.8
2023-04-16T05:38:46.561Z,22.1
2023-04-16T05:40:44.472Z,21.3
2023-04-16T05:42:41.597Z,20.3
2023-04-16T05:44:47.106Z,23.5
2023-04-16T05:46:44.687Z,22.5
2023-04-16T05:48:42.305Z,19.5
2023-04-16T05:50:39.946Z,20.9
2023-04-16T05:52:37.538Z,23
2023-04-16T05:54:35.151Z,20.9
2023-04-16T05:56:32.753Z,21.3
2023-04-16T05:58:38.272Z,20.6
2023-04-16T06:04:31.103Z,21.1
2023-04-16T06:06:28.689Z,22.7
2023-04-16T06:08:26.307Z,22.2
2023-04-16T06:14:27.010Z,21.6
2023-04-16T06:16:24.641Z,25.6
2023-04-16T06:17:27.343Z,18.6
2023-04-16T06:19:24.967Z,20.9
2023-04-16T06:21:22.547Z,20.6
2023-04-16T06:25:25.679Z,21.5
2023-04-16T06:37:11.273Z,20.5
2023-04-16T06:39:16.783Z,21.6
2023-04-16T06:41:14.400Z,20.9
2023-04-16T06:43:11.986Z,22.5
2023-04-16T06:47:07.332Z,24
2023-04-16T06:49:04.912Z,22.5
2023-04-16T06:51:02.415Z,21.6
2023-04-16T06:57:03.093Z,25.5
2023-04-16T06:59:00.712Z,21.1
2023-04-16T07:00:58.330Z,22.6
2023-04-16T07:02:58.394Z,22.1
2023-04-16T07:04:53.504Z,24.8
2023-04-16T07:06:58.996Z,23.7
2023-04-16T07:08:56.611Z,29.1
2023-04-16T07:13:17.198Z,26.6
2023-04-16T07:15:14.804Z,23
2023-04-16T07:17:12.374Z,23.3
2023-04-16T07:19:17.887Z,23.9
2023-04-16T07:21:15.461Z,23.8
2023-04-16T07:25:10.708Z,25.5
2023-04-16T07:27:08.290Z,22.6
2023-04-16T07:37:04.228Z,24
2023-04-16T07:39:01.872Z,24.5
2023-04-16T07:40:59.480Z,24.9
2023-04-16T07:42:57.087Z,21.7
2023-04-16T07:44:54.679Z,22.6
2023-04-16T07:47:00.276Z,25.4
2023-04-16T07:48:57.816Z,24.5
2023-04-16T07:50:55.429Z,28.5
2023-04-16T07:52:53.037Z,29.6
2023-04-16T07:54:50.647Z,29.8
2023-04-16T07:56:48.259Z,30.3
2023-04-16T07:58:45.840Z,26.4
2023-04-16T08:00:51.360Z,26.5
2023-04-16T08:02:49.177Z,29.3
2023-04-16T08:04:46.662Z,24.6
2023-04-16T08:07:46.925Z,24.5
2023-04-16T08:15:45.274Z,27.3
2023-04-16T08:19:40.464Z,26.4
2023-04-16T08:21:38.063Z,25.5
2023-04-16T08:23:35.635Z,24.3
2023-04-16T08:39:24.462Z,30.1
2023-04-16T08:41:29.988Z,27.2
2023-04-16T08:43:27.598Z,27.1
2023-04-16T08:45:25.167Z,24.7
2023-04-16T08:47:22.857Z,24.6
2023-04-16T08:49:20.402Z,26.9
2023-04-16T08:53:15.633Z,29
2023-04-16T08:57:18.705Z,22.2
2023-04-16T08:59:16.307Z,23.2
2023-04-16T09:00:19.083Z,25
2023-04-16T09:02:16.823Z,20.9
2023-04-16T09:04:14.496Z,21.5
2023-04-16T09:08:17.397Z,24.7
2023-04-16T09:12:12.603Z,28.6
2023-04-16T09:14:10.251Z,29
2023-04-16T09:18:05.433Z,22.2
2023-04-16T09:22:08.569Z,21.8
2023-04-16T09:26:03.819Z,19.9
2023-04-16T09:29:59.662Z,22.1
2023-04-16T09:31:57.306Z,22.9
2023-04-16T09:33:54.897Z,20.4
2023-04-16T09:36:00.392Z,23.1
2023-04-16T09:51:49.202Z,19.8
2023-04-16T09:54:49.526Z,18.5
2023-04-16T09:56:47.140Z,21.8
2023-04-16T09:58:44.758Z,19.7
2023-04-16T10:04:45.538Z,21.2
2023-04-16T10:06:43.070Z,18.2
2023-04-16T10:08:40.663Z,16
2023-04-16T10:10:42.149Z,20.3
2023-04-16T10:12:35.925Z,19.8
2023-04-16T10:14:33.483Z,18.4
2023-04-16T10:16:39.058Z,19.2
2023-04-16T10:18:36.597Z,17
2023-04-16T10:20:36.418Z,19.2
2023-04-16T10:22:31.805Z,16.9
2023-04-16T10:24:29.436Z,18.7
2023-04-16T10:26:27.039Z,19.4
2023-04-16T10:28:26.184Z,19.2
2023-04-16T10:30:33.245Z,16.4
2023-04-16T10:34:26.866Z,18.1
2023-04-16T10:38:22.051Z,19.3
2023-04-16T10:42:17.236Z,19.5
2023-04-16T10:44:22.753Z,16.7
2023-04-16T10:46:20.371Z,15.5
2023-04-16T10:50:40.757Z,17.2
2023-04-16T10:54:35.986Z,20.9
2023-04-16T10:56:41.513Z,17.4
2023-04-16T10:58:39.105Z,16.9
2023-04-16T11:00:36.708Z,17.6
2023-04-16T11:02:34.449Z,17.1
2023-04-16T11:04:31.977Z,16.3
2023-04-16T11:06:29.534Z,19
2023-04-16T11:08:27.099Z,14.7
2023-04-16T11:10:33.241Z,17.4
2023-04-16T11:12:30.213Z,16.6
2023-04-16T11:14:27.822Z,17.2
2023-04-16T11:16:25.554Z,18.7
2023-04-16T11:18:23.052Z,16.4
2023-04-16T11:20:21.115Z,12.8
2023-04-16T11:22:18.217Z,15.8
2023-04-16T11:26:21.337Z,17
2023-04-16T11:28:18.913Z,16
2023-04-16T11:30:16.517Z,16.9
2023-04-16T11:36:09.312Z,14.3
2023-04-16T11:38:14.815Z,18.6
2023-04-16T11:40:12.457Z,18.8
2023-04-16T11:42:10.132Z,17.2
2023-04-16T11:43:12.824Z,16.7
2023-04-16T11:45:10.416Z,15.6
2023-04-16T11:47:08.047Z,16.5
2023-04-16T11:49:05.594Z,17.6
2023-04-16T12:00:59.168Z,15.7
2023-04-16T12:06:59.858Z,17.7
2023-04-16T12:08:57.459Z,17.8
2023-04-16T12:14:50.239Z,19.9
2023-04-16T12:16:47.929Z,15.3
2023-04-16T12:18:53.370Z,20.2
2023-04-16T12:26:43.721Z,17.3
2023-04-16T12:28:41.345Z,18.1
2023-04-16T12:32:44.551Z,18.2
2023-04-16T12:34:48.723Z,15.6
2023-04-16T12:36:39.635Z,15.7
2023-04-16T12:37:42.383Z,15.7
2023-04-16T12:43:35.132Z,18.4
2023-04-16T12:49:35.865Z,16.2
2023-04-16T12:53:31.078Z,16.8
2023-04-16T12:55:29.612Z,14.8
2023-04-16T12:57:26.262Z,17.6
2023-04-16T12:59:31.772Z,15.1
2023-04-16T13:01:29.340Z,15.5
2023-04-16T13:03:27.138Z,14.4
2023-04-16T13:05:24.520Z,15.3
2023-04-16T13:07:22.082Z,12.9
2023-04-16T13:11:17.240Z,17
2023-04-16T13:15:20.308Z,17.6
2023-04-16T13:17:18.436Z,16
2023-04-16T13:19:15.994Z,15.1
2023-04-16T13:21:13.591Z,15.8
2023-04-16T13:23:11.187Z,15.1
2023-04-16T13:27:14.270Z,15
2023-04-16T13:31:09.452Z,14.3
2023-04-16T13:34:09.766Z,15.4
2023-04-16T13:36:07.358Z,14.8
2023-04-16T13:38:04.958Z,12.3
2023-04-16T13:42:08.067Z,16.9
2023-04-16T13:44:05.626Z,14.8
2023-04-16T13:48:00.778Z,15.5
2023-04-16T13:49:58.354Z,15.1
2023-04-16T13:51:55.968Z,14.7
2023-04-16T13:54:01.495Z,14.4
2023-04-16T13:55:59.018Z,13.8
2023-04-16T13:57:56.594Z,14.5
2023-04-16T13:59:54.180Z,14.7
2023-04-16T14:01:51.836Z,15.2
2023-04-16T14:03:49.433Z,14.2
2023-04-16T14:05:46.946Z,12.5
2023-04-16T14:09:50.048Z,14.1
2023-04-16T14:11:47.627Z,15
2023-04-16T14:13:45.214Z,14.3
2023-04-16T14:15:42.809Z,14.2
2023-04-16T14:19:37.977Z,13
2023-04-16T14:23:41.141Z,13.8
2023-04-16T14:25:38.691Z,14.3
2023-04-16T14:28:05.553Z,14.7
2023-04-16T14:30:03.148Z,12.7
2023-04-16T14:32:00.793Z,14
2023-04-16T14:34:06.273Z,15.7
2023-04-16T14:36:03.880Z,12.2
2023-04-16T14:38:01.470Z,12.8
2023-04-16T14:39:59.040Z,12.9
2023-04-16T14:41:56.635Z,13
2023-04-16T14:43:54.247Z,15.1
2023-04-16T14:45:51.872Z,14.6
2023-04-16T14:47:57.378Z,16.8
2023-04-16T14:49:54.956Z,13.6
2023-04-16T14:51:52.534Z,16.4
2023-04-16T14:53:50.158Z,14.3
2023-04-16T14:55:47.713Z,12.6
2023-04-16T14:59:42.928Z,13.3
2023-04-16T15:01:48.484Z,13
2023-04-16T15:03:46.140Z,14.8
2023-04-16T15:05:43.641Z,14.8
2023-04-16T15:20:37.493Z,16.3
2023-04-16T15:22:35.105Z,13.9
2023-04-16T15:26:30.262Z,12.5
2023-04-16T15:28:35.770Z,14.5
2023-04-16T15:32:30.975Z,13.4
2023-04-16T15:40:21.335Z,17
2023-04-16T15:42:26.846Z,12.7
2023-04-16T15:44:24.431Z,13.1
2023-04-16T15:46:22.115Z,12.3
2023-04-16T15:48:19.629Z,15.4
2023-04-16T15:52:14.811Z,16.1
2023-04-16T15:54:12.429Z,15.1
2023-04-16T15:56:17.947Z,14.4
2023-04-16T16:00:13.389Z,13.7
2023-04-16T16:04:08.567Z,16.8
2023-04-16T16:06:05.963Z,13.1
2023-04-16T16:08:03.582Z,13.8
2023-04-16T16:10:10.617Z,16.4
2023-04-16T16:12:08.199Z,20.5
2023-04-16T16:17:06.159Z,19.3
2023-04-16T16:19:03.753Z,15.6
2023-04-16T16:21:01.360Z,15.2
2023-04-16T16:25:04.502Z,16.4
2023-04-16T16:27:02.087Z,15.5
2023-04-16T16:28:59.688Z,16.9
2023-04-16T16:30:57.302Z,16.2
2023-04-16T16:32:54.927Z,16.2
2023-04-16T16:34:52.534Z,18
2023-04-16T16:36:58.002Z,16.5
2023-04-16T16:38:55.616Z,18.5
2023-04-16T16:40:53.189Z,16.7
2023-04-16T16:46:46.007Z,18
2023-04-16T16:48:43.590Z,14.8
2023-04-16T16:50:49.106Z,15.1
2023-04-16T16:52:46.712Z,14.7
2023-04-16T16:54:44.318Z,22.1
2023-04-16T16:56:41.931Z,19
2023-04-16T16:58:39.536Z,16.6
2023-04-16T17:00:37.213Z,15.3
2023-04-16T17:02:34.894Z,17
2023-04-16T17:08:35.535Z,19
2023-04-16T17:09:38.293Z,19.1
2023-04-16T17:11:35.883Z,17.7
2023-04-16T17:21:31.873Z,19.5
2023-04-16T17:23:29.478Z,18.7
2023-04-16T17:27:24.684Z,20.9
2023-04-16T17:29:22.257Z,20.6
2023-04-16T17:31:27.924Z,17.5
2023-04-16T17:33:25.379Z,18.5
2023-04-16T17:35:22.965Z,16.4
2023-04-16T17:37:20.578Z,19
2023-04-16T17:39:18.216Z,17.8
2023-04-16T17:41:15.773Z,17
2023-04-16T17:43:13.386Z,19.1
2023-04-16T17:45:18.888Z,19.9
2023-04-16T17:51:11.753Z,17.8
2023-04-16T17:53:09.370Z,19.8
2023-04-16T18:01:07.745Z,19
2023-04-16T18:03:05.466Z,19.9
2023-04-16T18:05:32.236Z,18.2
2023-04-16T18:09:27.428Z,44.8
2023-04-16T18:11:32.928Z,16.8
2023-04-16T18:13:30.524Z,20.9
2023-04-16T18:19:23.343Z,18.6
2023-04-16T18:21:20.984Z,18.7
2023-04-16T18:27:21.677Z,21.9
2023-04-16T18:31:20.648Z,21.1
2023-04-16T18:33:37.422Z,18.9
2023-04-16T18:35:12.136Z,22
2023-04-16T18:37:09.729Z,20.1
2023-04-16T18:39:15.298Z,19.1
2023-04-16T18:41:12.829Z,17.3
2023-04-16T18:51:00.879Z,20.5
2023-04-16T18:58:04.333Z,20.6
2023-04-16T19:03:57.154Z,24.7
2023-04-16T19:06:02.614Z,20.9
2023-04-16T19:09:57.794Z,21
2023-04-16T19:11:55.396Z,21.6
2023-04-16T19:13:52.982Z,20.3
2023-04-16T19:15:50.594Z,23.7
2023-04-16T19:19:53.685Z,22.2
2023-04-16T19:33:44.818Z,22.4
2023-04-16T19:37:40.035Z,21.6
2023-04-16T19:39:37.672Z,21.6
2023-04-16T19:41:35.233Z,23.9
2023-04-16T19:43:32.836Z,19.8
2023-04-16T19:51:31.188Z,26.2
2023-04-16T20:10:20.252Z,24.7
2023-04-16T20:12:17.839Z,22.6
2023-04-16T20:14:23.394Z,21.4
2023-04-16T20:16:20.980Z,22.2
2023-04-16T20:18:19.034Z,22.8
2023-04-16T20:20:16.193Z,21
2023-04-16T20:22:13.766Z,22.4
2023-04-16T20:24:11.366Z,24.5
2023-04-16T20:26:08.944Z,23.5
2023-04-16T20:28:14.452Z,23.6
2023-04-16T20:30:12.084Z,26.6
2023-04-16T20:36:04.900Z,21.8
2023-04-16T20:38:02.483Z,24.3
2023-04-16T20:40:00.105Z,22.9
2023-04-16T20:42:05.621Z,25
2023-04-16T20:46:00.857Z,22.4
2023-04-16T20:47:03.609Z,23.1
2023-04-16T20:49:01.377Z,22.8
2023-04-16T20:50:58.787Z,23.8
2023-04-16T20:52:56.432Z,21.2
2023-04-16T20:58:57.120Z,22.4
2023-04-16T21:00:54.705Z,20.8
2023-04-16T21:02:52.426Z,21.2
2023-04-16T21:04:49.986Z,22.2
2023-04-16T21:06:47.532Z,20.5
2023-04-16T21:08:53.062Z,21.8
2023-04-16T21:10:50.681Z,22.1
2023-04-16T21:12:48.305Z,23.1
2023-04-16T21:14:45.887Z,21.4
2023-04-16T21:18:41.090Z,21.5
2023-04-16T21:20:38.718Z,22.7
2023-04-16T21:22:44.231Z,25.3
2023-04-16T21:24:41.850Z,23.3
2023-04-16T21:26:39.468Z,27.2
2023-04-16T21:28:37.053Z,24
2023-04-16T21:30:34.657Z,23.7
2023-04-16T21:32:32.296Z,24.5
2023-04-16T21:38:32.994Z,24.5
2023-04-16T21:40:30.579Z,25.6
2023-04-16T21:42:58.484Z,22.1
2023-04-16T21:44:56.084Z,23.4
2023-04-16T21:46:53.727Z,24.4
2023-04-16T21:49:00.786Z,26.2
2023-04-16T21:50:58.371Z,23.6
2023-04-16T21:52:55.946Z,24.4
2023-04-16T22:08:44.685Z,24.4
2023-04-16T22:10:42.294Z,25.7
2023-04-16T22:12:40.091Z,29.5
2023-04-16T22:14:38.379Z,23.9
2023-04-16T22:18:40.643Z,24.9
2023-04-16T22:24:33.430Z,24.5
2023-04-16T22:26:31.066Z,22.6
2023-04-16T22:28:28.668Z,25.5
2023-04-16T22:30:34.140Z,23.4
2023-04-16T22:37:29.723Z,24.3
2023-04-16T22:39:27.347Z,26.8
2023-04-16T22:41:24.929Z,24.4
2023-04-16T22:45:28.018Z,27.8
2023-04-16T22:47:25.895Z,26
2023-04-16T22:49:23.207Z,22.5
2023-04-16T22:51:20.806Z,26.6
2023-04-16T22:53:18.402Z,25
2023-04-16T22:55:15.964Z,25.3
2023-04-16T22:57:21.500Z,29.2
2023-04-16T22:59:19.105Z,25.5
2023-04-16T23:01:16.732Z,24.9
2023-04-16T23:17:05.364Z,24.3
2023-04-16T23:21:00.531Z,25.4
2023-04-16T23:25:03.647Z,24.5
2023-04-16T23:28:58.806Z,23.4
2023-04-16T23:30:01.618Z,24.8
2023-04-16T23:31:59.137Z,19.2
2023-04-16T23:33:56.720Z,23.6
2023-04-16T23:35:54.344Z,23.4
2023-04-16T23:38:00.540Z,25.4
2023-04-16T23:39:58.117Z,25
2023-04-16T23:41:55.687Z,25.7
2023-04-16T23:43:53.277Z,23.8
2023-04-16T23:45:50.924Z,22.3
2023-04-16T23:47:48.509Z,22.3
2023-04-16T23:49:46.070Z,23.7
2023-04-16T23:51:51.595Z,24.5
2023-04-16T23:53:49.830Z,22.4
2023-04-16T23:55:46.763Z,26.7
2023-04-16T23:59:41.962Z,26.3
